sensor_id;sensor_type;location;lat;lon;timestamp;P1;durP1;ratioP1;P2;durP2;ratioP2
32946;SDS011;54465;51.230;22.504;2023-08-20T00:02:21;10.55;;;9.45;;
32946;SDS011;54465;51.230;22.504;2023-08-20T00:07:24;9.80;;;8.90;;
32946;SDS011;54465;51.230;22.504;2023-08-20T00:12:24;10.60;;;9.50;;
32946;SDS011;54465;51.230;22.504;2023-08-20T00:17:26;9.90;;;8.98;;
32946;SDS011;54465;51.230;22.504;2023-08-20T00:22:27;9.23;;;8.20;;
32946;SDS011;54465;51.230;22.504;2023-08-20T00:27:27;10.23;;;9.23;;
32946;SDS011;54465;51.230;22.504;2023-08-20T00:32:28;10.63;;;9.52;;
32946;SDS011;54465;51.230;22.504;2023-08-20T00:37:29;11.07;;;10.00;;
32946;SDS011;54465;51.230;22.504;2023-08-20T00:42:29;10.88;;;9.32;;
32946;SDS011;54465;51.230;22.504;2023-08-20T00:47:30;9.60;;;8.77;;
32946;SDS011;54465;51.230;22.504;2023-08-20T00:52:31;10.30;;;8.98;;
32946;SDS011;54465;51.230;22.504;2023-08-20T00:57:32;10.50;;;9.38;;
32946;SDS011;54465;51.230;22.504;2023-08-20T01:02:32;10.75;;;9.52;;
32946;SDS011;54465;51.230;22.504;2023-08-20T01:12:56;10.60;;;9.57;;
32946;SDS011;54465;51.230;22.504;2023-08-20T01:17:57;11.15;;;10.05;;
32946;SDS011;54465;51.230;22.504;2023-08-20T01:28:29;11.25;;;10.02;;
32946;SDS011;54465;51.230;22.504;2023-08-20T01:33:30;11.70;;;10.60;;
32946;SDS011;54465;51.230;22.504;2023-08-20T01:38:32;12.57;;;10.48;;
32946;SDS011;54465;51.230;22.504;2023-08-20T01:43:32;11.52;;;10.18;;
32946;SDS011;54465;51.230;22.504;2023-08-20T01:48:34;11.50;;;10.27;;
32946;SDS011;54465;51.230;22.504;2023-08-20T01:53:34;10.57;;;9.52;;
32946;SDS011;54465;51.230;22.504;2023-08-20T01:58:35;11.38;;;10.27;;
32946;SDS011;54465;51.230;22.504;2023-08-20T02:03:37;12.38;;;9.80;;
32946;SDS011;54465;51.230;22.504;2023-08-20T02:08:38;10.98;;;9.90;;
32946;SDS011;54465;51.230;22.504;2023-08-20T02:13:38;12.73;;;10.75;;
32946;SDS011;54465;51.230;22.504;2023-08-20T02:18:39;11.40;;;10.40;;
32946;SDS011;54465;51.230;22.504;2023-08-20T02:23:39;10.82;;;9.82;;
32946;SDS011;54465;51.230;22.504;2023-08-20T02:28:40;11.80;;;10.80;;
32946;SDS011;54465;51.230;22.504;2023-08-20T02:33:41;13.25;;;11.90;;
32946;SDS011;54465;51.230;22.504;2023-08-20T02:38:45;11.70;;;10.50;;
32946;SDS011;54465;51.230;22.504;2023-08-20T02:43:46;13.35;;;10.98;;
32946;SDS011;54465;51.230;22.504;2023-08-20T02:48:47;13.15;;;11.82;;
32946;SDS011;54465;51.230;22.504;2023-08-20T02:53:48;15.20;;;10.93;;
32946;SDS011;54465;51.230;22.504;2023-08-20T02:58:48;12.43;;;11.18;;
32946;SDS011;54465;51.230;22.504;2023-08-20T03:03:49;12.20;;;10.90;;
32946;SDS011;54465;51.230;22.504;2023-08-20T03:08:50;12.80;;;11.45;;
32946;SDS011;54465;51.230;22.504;2023-08-20T03:13:50;11.95;;;10.75;;
32946;SDS011;54465;51.230;22.504;2023-08-20T03:18:50;13.30;;;12.00;;
32946;SDS011;54465;51.230;22.504;2023-08-20T03:23:51;12.32;;;11.20;;
32946;SDS011;54465;51.230;22.504;2023-08-20T03:28:51;13.10;;;11.88;;
32946;SDS011;54465;51.230;22.504;2023-08-20T03:33:52;12.73;;;10.90;;
32946;SDS011;54465;51.230;22.504;2023-08-20T03:38:52;12.43;;;11.10;;
32946;SDS011;54465;51.230;22.504;2023-08-20T03:43:55;13.63;;;12.18;;
32946;SDS011;54465;51.230;22.504;2023-08-20T03:48:56;13.70;;;11.20;;
32946;SDS011;54465;51.230;22.504;2023-08-20T03:53:57;13.05;;;11.70;;
32946;SDS011;54465;51.230;22.504;2023-08-20T03:58:57;14.80;;;11.32;;
32946;SDS011;54465;51.230;22.504;2023-08-20T04:03:58;15.73;;;12.05;;
32946;SDS011;54465;51.230;22.504;2023-08-20T04:08:59;13.55;;;12.23;;
32946;SDS011;54465;51.230;22.504;2023-08-20T04:14:00;12.00;;;10.77;;
32946;SDS011;54465;51.230;22.504;2023-08-20T04:19:00;12.07;;;10.98;;
32946;SDS011;54465;51.230;22.504;2023-08-20T04:24:01;12.77;;;11.57;;
32946;SDS011;54465;51.230;22.504;2023-08-20T04:29:02;13.98;;;12.68;;
32946;SDS011;54465;51.230;22.504;2023-08-20T04:34:02;16.35;;;12.10;;
32946;SDS011;54465;51.230;22.504;2023-08-20T04:39:12;13.32;;;12.00;;
32946;SDS011;54465;51.230;22.504;2023-08-20T04:44:18;15.70;;;13.40;;
32946;SDS011;54465;51.230;22.504;2023-08-20T04:49:20;15.57;;;13.18;;
32946;SDS011;54465;51.230;22.504;2023-08-20T04:54:21;15.00;;;13.60;;
32946;SDS011;54465;51.230;22.504;2023-08-20T04:59:21;19.35;;;14.32;;
32946;SDS011;54465;51.230;22.504;2023-08-20T05:04:25;15.35;;;13.77;;
32946;SDS011;54465;51.230;22.504;2023-08-20T05:09:25;14.70;;;13.10;;
32946;SDS011;54465;51.230;22.504;2023-08-20T05:14:26;17.10;;;15.38;;
32946;SDS011;54465;51.230;22.504;2023-08-20T05:19:27;17.75;;;14.70;;
32946;SDS011;54465;51.230;22.504;2023-08-20T05:24:27;16.23;;;14.35;;
32946;SDS011;54465;51.230;22.504;2023-08-20T05:29:28;16.15;;;14.45;;
32946;SDS011;54465;51.230;22.504;2023-08-20T05:34:28;16.63;;;14.90;;
32946;SDS011;54465;51.230;22.504;2023-08-20T05:39:30;15.52;;;13.65;;
32946;SDS011;54465;51.230;22.504;2023-08-20T05:44:31;16.00;;;14.40;;
32946;SDS011;54465;51.230;22.504;2023-08-20T05:49:32;17.00;;;15.10;;
32946;SDS011;54465;51.230;22.504;2023-08-20T05:54:33;15.68;;;14.20;;
32946;SDS011;54465;51.230;22.504;2023-08-20T05:59:33;18.45;;;16.50;;
32946;SDS011;54465;51.230;22.504;2023-08-20T06:04:35;15.90;;;14.30;;
32946;SDS011;54465;51.230;22.504;2023-08-20T06:09:35;17.05;;;15.45;;
32946;SDS011;54465;51.230;22.504;2023-08-20T06:14:36;17.33;;;15.68;;
32946;SDS011;54465;51.230;22.504;2023-08-20T06:19:36;17.45;;;15.70;;
32946;SDS011;54465;51.230;22.504;2023-08-20T06:24:37;16.90;;;15.05;;
32946;SDS011;54465;51.230;22.504;2023-08-20T06:29:38;16.65;;;15.02;;
32946;SDS011;54465;51.230;22.504;2023-08-20T06:34:39;16.48;;;14.77;;
32946;SDS011;54465;51.230;22.504;2023-08-20T06:39:39;17.10;;;15.48;;
32946;SDS011;54465;51.230;22.504;2023-08-20T06:44:39;17.20;;;15.40;;
32946;SDS011;54465;51.230;22.504;2023-08-20T06:49:40;17.83;;;14.63;;
32946;SDS011;54465;51.230;22.504;2023-08-20T06:54:41;15.35;;;13.13;;
32946;SDS011;54465;51.230;22.504;2023-08-20T06:59:42;15.48;;;14.00;;
32946;SDS011;54465;51.230;22.504;2023-08-20T07:04:43;15.65;;;14.25;;
32946;SDS011;54465;51.230;22.504;2023-08-20T07:09:44;15.85;;;14.35;;
32946;SDS011;54465;51.230;22.504;2023-08-20T07:14:44;15.85;;;14.13;;
32946;SDS011;54465;51.230;22.504;2023-08-20T07:19:45;14.18;;;12.90;;
32946;SDS011;54465;51.230;22.504;2023-08-20T07:24:45;14.05;;;12.23;;
32946;SDS011;54465;51.230;22.504;2023-08-20T08:19:53;12.68;;;11.48;;
32946;SDS011;54465;51.230;22.504;2023-08-20T08:24:55;10.52;;;9.60;;
32946;SDS011;54465;51.230;22.504;2023-08-20T08:29:56;13.70;;;10.18;;
32946;SDS011;54465;51.230;22.504;2023-08-20T08:34:56;12.90;;;9.60;;
32946;SDS011;54465;51.230;22.504;2023-08-20T08:39:57;11.52;;;10.40;;
32946;SDS011;54465;51.230;22.504;2023-08-20T08:44:57;10.55;;;9.55;;
32946;SDS011;54465;51.230;22.504;2023-08-20T08:49:59;11.38;;;10.30;;
32946;SDS011;54465;51.230;22.504;2023-08-20T08:55:00;13.00;;;11.60;;
32946;SDS011;54465;51.230;22.504;2023-08-20T09:00:01;11.48;;;10.35;;
32946;SDS011;54465;51.230;22.504;2023-08-20T09:05:04;12.95;;;11.65;;
32946;SDS011;54465;51.230;22.504;2023-08-20T09:10:05;13.02;;;11.82;;
32946;SDS011;54465;51.230;22.504;2023-08-20T09:15:10;11.05;;;10.15;;
32946;SDS011;54465;51.230;22.504;2023-08-20T09:20:12;12.07;;;10.97;;
32946;SDS011;54465;51.230;22.504;2023-08-20T09:25:15;13.73;;;11.52;;
32946;SDS011;54465;51.230;22.504;2023-08-20T09:30:17;15.00;;;13.40;;
32946;SDS011;54465;51.230;22.504;2023-08-20T09:35:19;12.85;;;11.75;;
32946;SDS011;54465;51.230;22.504;2023-08-20T09:40:20;12.40;;;11.30;;
32946;SDS011;54465;51.230;22.504;2023-08-20T09:45:20;15.95;;;14.50;;
32946;SDS011;54465;51.230;22.504;2023-08-20T09:50:21;14.40;;;12.98;;
32946;SDS011;54465;51.230;22.504;2023-08-20T09:55:23;11.52;;;10.32;;
32946;SDS011;54465;51.230;22.504;2023-08-20T10:00:29;10.57;;;9.55;;
32946;SDS011;54465;51.230;22.504;2023-08-20T10:05:30;12.73;;;10.13;;
32946;SDS011;54465;51.230;22.504;2023-08-20T10:10:31;9.00;;;8.20;;
32946;SDS011;54465;51.230;22.504;2023-08-20T10:15:32;8.65;;;7.93;;
32946;SDS011;54465;51.230;22.504;2023-08-20T10:20:34;9.07;;;7.65;;
32946;SDS011;54465;51.230;22.504;2023-08-20T10:25:40;7.78;;;7.07;;
32946;SDS011;54465;51.230;22.504;2023-08-20T10:36:07;8.30;;;7.00;;
32946;SDS011;54465;51.230;22.504;2023-08-20T10:41:28;7.72;;;7.13;;
32946;SDS011;54465;51.230;22.504;2023-08-20T10:46:29;7.28;;;6.10;;
32946;SDS011;54465;51.230;22.504;2023-08-20T10:51:37;7.40;;;6.70;;
32946;SDS011;54465;51.230;22.504;2023-08-20T10:56:44;7.95;;;7.15;;
32946;SDS011;54465;51.230;22.504;2023-08-20T11:01:55;7.90;;;7.03;;
32946;SDS011;54465;51.230;22.504;2023-08-20T11:06:57;7.88;;;7.05;;
32946;SDS011;54465;51.230;22.504;2023-08-20T11:11:58;7.75;;;7.05;;
32946;SDS011;54465;51.230;22.504;2023-08-20T11:16:59;8.18;;;7.43;;
32946;SDS011;54465;51.230;22.504;2023-08-20T11:21:59;7.63;;;6.93;;
32946;SDS011;54465;51.230;22.504;2023-08-20T11:27:00;7.82;;;6.80;;
32946;SDS011;54465;51.230;22.504;2023-08-20T11:32:00;7.97;;;7.28;;
32946;SDS011;54465;51.230;22.504;2023-08-20T11:37:03;7.80;;;7.10;;
32946;SDS011;54465;51.230;22.504;2023-08-20T11:42:05;7.20;;;6.50;;
32946;SDS011;54465;51.230;22.504;2023-08-20T11:47:13;8.18;;;7.40;;
32946;SDS011;54465;51.230;22.504;2023-08-20T11:52:18;8.60;;;7.90;;
32946;SDS011;54465;51.230;22.504;2023-08-20T11:57:18;8.43;;;7.63;;
32946;SDS011;54465;51.230;22.504;2023-08-20T12:02:25;10.70;;;9.80;;
32946;SDS011;54465;51.230;22.504;2023-08-20T12:07:29;9.23;;;8.27;;
32946;SDS011;54465;51.230;22.504;2023-08-20T12:12:30;10.45;;;9.55;;
32946;SDS011;54465;51.230;22.504;2023-08-20T12:17:30;8.52;;;7.82;;
32946;SDS011;54465;51.230;22.504;2023-08-20T12:22:31;12.15;;;10.93;;
32946;SDS011;54465;51.230;22.504;2023-08-20T12:27:31;14.88;;;13.57;;
32946;SDS011;54465;51.230;22.504;2023-08-20T12:32:32;16.27;;;14.65;;
32946;SDS011;54465;51.230;22.504;2023-08-20T12:37:33;23.90;;;21.60;;
32946;SDS011;54465;51.230;22.504;2023-08-20T12:42:34;25.23;;;22.75;;
32946;SDS011;54465;51.230;22.504;2023-08-20T12:47:34;23.00;;;20.73;;
32946;SDS011;54465;51.230;22.504;2023-08-20T12:52:35;22.52;;;20.35;;
32946;SDS011;54465;51.230;22.504;2023-08-20T12:57:35;24.70;;;17.13;;
32946;SDS011;54465;51.230;22.504;2023-08-20T13:02:36;17.23;;;15.60;;
32946;SDS011;54465;51.230;22.504;2023-08-20T13:07:37;18.45;;;16.67;;
32946;SDS011;54465;51.230;22.504;2023-08-20T13:12:37;17.65;;;16.05;;
32946;SDS011;54465;51.230;22.504;2023-08-20T13:17:41;15.77;;;14.40;;
32946;SDS011;54465;51.230;22.504;2023-08-20T13:22:42;16.33;;;14.82;;
32946;SDS011;54465;51.230;22.504;2023-08-20T13:27:43;18.08;;;16.50;;
32946;SDS011;54465;51.230;22.504;2023-08-20T13:32:44;15.50;;;12.95;;
32946;SDS011;54465;51.230;22.504;2023-08-20T13:37:44;9.95;;;9.00;;
32946;SDS011;54465;51.230;22.504;2023-08-20T13:42:45;7.82;;;7.22;;
32946;SDS011;54465;51.230;22.504;2023-08-20T13:47:46;10.10;;;8.88;;
32946;SDS011;54465;51.230;22.504;2023-08-20T13:52:46;9.95;;;9.00;;
32946;SDS011;54465;51.230;22.504;2023-08-20T13:57:47;9.98;;;9.18;;
32946;SDS011;54465;51.230;22.504;2023-08-20T14:02:47;9.75;;;8.77;;
32946;SDS011;54465;51.230;22.504;2023-08-20T14:07:48;10.30;;;9.35;;
32946;SDS011;54465;51.230;22.504;2023-08-20T14:12:48;10.88;;;9.98;;
32946;SDS011;54465;51.230;22.504;2023-08-20T14:17:49;11.23;;;10.13;;
32946;SDS011;54465;51.230;22.504;2023-08-20T14:22:49;11.45;;;10.35;;
32946;SDS011;54465;51.230;22.504;2023-08-20T14:27:50;10.35;;;9.35;;
32946;SDS011;54465;51.230;22.504;2023-08-20T14:32:50;8.13;;;7.43;;
32946;SDS011;54465;51.230;22.504;2023-08-20T14:37:52;7.43;;;6.72;;
32946;SDS011;54465;51.230;22.504;2023-08-20T14:42:54;7.18;;;6.47;;
32946;SDS011;54465;51.230;22.504;2023-08-20T14:47:54;9.65;;;6.32;;
32946;SDS011;54465;51.230;22.504;2023-08-20T14:52:55;6.53;;;5.93;;
32946;SDS011;54465;51.230;22.504;2023-08-20T14:57:55;6.32;;;5.82;;
32946;SDS011;54465;51.230;22.504;2023-08-20T15:02:56;5.95;;;5.45;;
32946;SDS011;54465;51.230;22.504;2023-08-20T15:07:56;7.68;;;6.05;;
32946;SDS011;54465;51.230;22.504;2023-08-20T15:12:57;5.13;;;4.72;;
32946;SDS011;54465;51.230;22.504;2023-08-20T15:17:57;5.07;;;4.68;;
32946;SDS011;54465;51.230;22.504;2023-08-20T15:22:58;5.03;;;4.63;;
32946;SDS011;54465;51.230;22.504;2023-08-20T15:27:58;4.93;;;4.43;;
32946;SDS011;54465;51.230;22.504;2023-08-20T15:32:59;5.32;;;4.82;;
32946;SDS011;54465;51.230;22.504;2023-08-20T15:37:59;4.75;;;4.45;;
32946;SDS011;54465;51.230;22.504;2023-08-20T15:43:00;4.85;;;4.43;;
32946;SDS011;54465;51.230;22.504;2023-08-20T15:48:00;6.18;;;5.57;;
32946;SDS011;54465;51.230;22.504;2023-08-20T15:53:01;6.47;;;5.95;;
32946;SDS011;54465;51.230;22.504;2023-08-20T15:58:01;8.05;;;5.63;;
32946;SDS011;54465;51.230;22.504;2023-08-20T16:03:03;6.28;;;5.68;;
32946;SDS011;54465;51.230;22.504;2023-08-20T16:08:03;5.93;;;5.53;;
32946;SDS011;54465;51.230;22.504;2023-08-20T16:13:05;7.68;;;5.85;;
32946;SDS011;54465;51.230;22.504;2023-08-20T16:18:05;6.32;;;5.78;;
32946;SDS011;54465;51.230;22.504;2023-08-20T16:23:06;6.55;;;5.63;;
32946;SDS011;54465;51.230;22.504;2023-08-20T16:28:07;6.72;;;6.13;;
32946;SDS011;54465;51.230;22.504;2023-08-20T16:33:10;7.18;;;6.13;;
32946;SDS011;54465;51.230;22.504;2023-08-20T16:38:11;6.90;;;6.30;;
32946;SDS011;54465;51.230;22.504;2023-08-20T16:43:11;7.57;;;6.65;;
32946;SDS011;54465;51.230;22.504;2023-08-20T16:48:12;7.03;;;6.43;;
32946;SDS011;54465;51.230;22.504;2023-08-20T16:53:12;7.55;;;6.30;;
32946;SDS011;54465;51.230;22.504;2023-08-20T16:58:14;7.13;;;6.50;;
32946;SDS011;54465;51.230;22.504;2023-08-20T17:03:14;8.15;;;6.20;;
32946;SDS011;54465;51.230;22.504;2023-08-20T17:08:15;9.25;;;7.57;;
32946;SDS011;54465;51.230;22.504;2023-08-20T17:13:16;7.22;;;6.45;;
32946;SDS011;54465;51.230;22.504;2023-08-20T17:18:16;7.60;;;6.53;;
32946;SDS011;54465;51.230;22.504;2023-08-20T17:23:17;8.20;;;7.47;;
32946;SDS011;54465;51.230;22.504;2023-08-20T17:28:17;6.97;;;6.38;;
32946;SDS011;54465;51.230;22.504;2023-08-20T17:33:18;7.18;;;6.43;;
32946;SDS011;54465;51.230;22.504;2023-08-20T17:38:18;10.00;;;7.18;;
32946;SDS011;54465;51.230;22.504;2023-08-20T17:43:20;6.47;;;5.88;;
32946;SDS011;54465;51.230;22.504;2023-08-20T17:48:20;7.00;;;6.40;;
32946;SDS011;54465;51.230;22.504;2023-08-20T17:53:24;7.32;;;6.72;;
32946;SDS011;54465;51.230;22.504;2023-08-20T17:58:26;7.03;;;6.30;;
32946;SDS011;54465;51.230;22.504;2023-08-20T18:03:26;9.07;;;6.22;;
32946;SDS011;54465;51.230;22.504;2023-08-20T18:08:27;7.68;;;6.85;;
32946;SDS011;54465;51.230;22.504;2023-08-20T18:13:28;7.88;;;7.00;;
32946;SDS011;54465;51.230;22.504;2023-08-20T18:18:28;9.38;;;7.00;;
32946;SDS011;54465;51.230;22.504;2023-08-20T18:23:29;8.82;;;7.93;;
32946;SDS011;54465;51.230;22.504;2023-08-20T18:28:30;8.32;;;7.53;;
32946;SDS011;54465;51.230;22.504;2023-08-20T18:33:31;9.02;;;7.75;;
32946;SDS011;54465;51.230;22.504;2023-08-20T18:43:32;8.80;;;7.77;;
32946;SDS011;54465;51.230;22.504;2023-08-20T18:48:34;8.73;;;8.02;;
32946;SDS011;54465;51.230;22.504;2023-08-20T18:53:35;9.18;;;8.38;;
32946;SDS011;54465;51.230;22.504;2023-08-20T18:58:36;9.20;;;8.45;;
32946;SDS011;54465;51.230;22.504;2023-08-20T19:03:36;9.63;;;8.68;;
32946;SDS011;54465;51.230;22.504;2023-08-20T19:08:37;9.38;;;8.48;;
32946;SDS011;54465;51.230;22.504;2023-08-20T19:13:38;9.57;;;8.73;;
32946;SDS011;54465;51.230;22.504;2023-08-20T19:18:38;10.13;;;9.13;;
32946;SDS011;54465;51.230;22.504;2023-08-20T19:23:39;10.13;;;9.18;;
32946;SDS011;54465;51.230;22.504;2023-08-20T19:28:39;9.85;;;8.82;;
32946;SDS011;54465;51.230;22.504;2023-08-20T19:33:40;9.77;;;8.77;;
32946;SDS011;54465;51.230;22.504;2023-08-20T19:38:40;9.98;;;9.05;;
32946;SDS011;54465;51.230;22.504;2023-08-20T19:43:41;8.93;;;8.13;;
32946;SDS011;54465;51.230;22.504;2023-08-20T19:48:41;9.00;;;8.10;;
32946;SDS011;54465;51.230;22.504;2023-08-20T19:53:42;8.80;;;8.02;;
32946;SDS011;54465;51.230;22.504;2023-08-20T19:58:44;9.02;;;8.23;;
32946;SDS011;54465;51.230;22.504;2023-08-20T20:03:45;8.40;;;7.72;;
32946;SDS011;54465;51.230;22.504;2023-08-20T20:08:45;8.57;;;7.75;;
32946;SDS011;54465;51.230;22.504;2023-08-20T20:13:45;8.93;;;8.13;;
32946;SDS011;54465;51.230;22.504;2023-08-20T20:18:46;10.15;;;8.20;;
32946;SDS011;54465;51.230;22.504;2023-08-20T20:23:47;8.57;;;7.72;;
32946;SDS011;54465;51.230;22.504;2023-08-20T20:28:47;9.82;;;8.55;;
32946;SDS011;54465;51.230;22.504;2023-08-20T20:33:48;8.40;;;7.60;;
32946;SDS011;54465;51.230;22.504;2023-08-20T20:38:48;8.82;;;7.95;;
32946;SDS011;54465;51.230;22.504;2023-08-20T20:43:49;8.40;;;7.63;;
32946;SDS011;54465;51.230;22.504;2023-08-20T20:48:49;9.38;;;8.48;;
32946;SDS011;54465;51.230;22.504;2023-08-20T20:53:51;8.88;;;8.13;;
32946;SDS011;54465;51.230;22.504;2023-08-20T20:58:53;8.63;;;7.72;;
32946;SDS011;54465;51.230;22.504;2023-08-20T21:03:53;9.38;;;8.10;;
32946;SDS011;54465;51.230;22.504;2023-08-20T21:08:54;10.07;;;7.97;;
32946;SDS011;54465;51.230;22.504;2023-08-20T21:13:56;8.98;;;8.13;;
32946;SDS011;54465;51.230;22.504;2023-08-20T21:18:56;9.20;;;8.38;;
32946;SDS011;54465;51.230;22.504;2023-08-20T21:23:57;8.75;;;7.97;;
32946;SDS011;54465;51.230;22.504;2023-08-20T21:28:58;8.52;;;7.60;;
32946;SDS011;54465;51.230;22.504;2023-08-20T21:33:58;9.48;;;8.57;;
32946;SDS011;54465;51.230;22.504;2023-08-20T21:38:59;8.95;;;8.15;;
32946;SDS011;54465;51.230;22.504;2023-08-20T21:43:59;9.35;;;8.35;;
32946;SDS011;54465;51.230;22.504;2023-08-20T21:49:00;8.63;;;7.82;;
32946;SDS011;54465;51.230;22.504;2023-08-20T21:54:00;9.52;;;8.73;;
32946;SDS011;54465;51.230;22.504;2023-08-20T21:59:02;10.50;;;9.48;;
32946;SDS011;54465;51.230;22.504;2023-08-20T22:04:03;9.20;;;8.30;;
32946;SDS011;54465;51.230;22.504;2023-08-20T22:09:03;9.20;;;8.45;;
32946;SDS011;54465;51.230;22.504;2023-08-20T22:14:08;9.18;;;8.38;;
32946;SDS011;54465;51.230;22.504;2023-08-20T22:19:09;9.65;;;8.77;;
32946;SDS011;54465;51.230;22.504;2023-08-20T22:24:10;11.27;;;9.43;;
32946;SDS011;54465;51.230;22.504;2023-08-20T22:29:11;10.68;;;9.60;;
32946;SDS011;54465;51.230;22.504;2023-08-20T22:34:13;11.13;;;10.00;;
32946;SDS011;54465;51.230;22.504;2023-08-20T22:39:14;11.60;;;9.27;;
32946;SDS011;54465;51.230;22.504;2023-08-20T22:44:17;9.80;;;8.90;;
32946;SDS011;54465;51.230;22.504;2023-08-20T22:49:17;10.90;;;9.30;;
32946;SDS011;54465;51.230;22.504;2023-08-20T22:54:18;10.60;;;9.15;;
32946;SDS011;54465;51.230;22.504;2023-08-20T22:59:18;10.73;;;9.77;;
32946;SDS011;54465;51.230;22.504;2023-08-20T23:04:19;10.85;;;9.85;;
32946;SDS011;54465;51.230;22.504;2023-08-20T23:09:19;10.80;;;9.77;;
32946;SDS011;54465;51.230;22.504;2023-08-20T23:14:20;10.10;;;9.30;;
32946;SDS011;54465;51.230;22.504;2023-08-20T23:19:20;10.75;;;9.80;;
32946;SDS011;54465;51.230;22.504;2023-08-20T23:24:20;12.13;;;11.02;;
32946;SDS011;54465;51.230;22.504;2023-08-20T23:29:21;11.30;;;10.27;;
32946;SDS011;54465;51.230;22.504;2023-08-20T23:34:21;10.82;;;9.85;;
32946;SDS011;54465;51.230;22.504;2023-08-20T23:39:22;10.95;;;9.75;;
32946;SDS011;54465;51.230;22.504;2023-08-20T23:44:22;10.43;;;9.52;;
32946;SDS011;54465;51.230;22.504;2023-08-20T23:49:23;11.32;;;10.23;;
32946;SDS011;54465;51.230;22.504;2023-08-20T23:54:23;10.32;;;9.43;;
32946;SDS011;54465;51.230;22.504;2023-08-20T23:59:24;11.05;;;10.05;;
